Time;durP1;ratioP1;P1;durP2;ratioP2;P2;SDS_P1;SDS_P2;PMS_P1;PMS_P2;Temp;Humidity;BMP_temperature;BMP_pressure;BME280_temperature;BME280_humidity;BME280_pressure;Samples;Min_cycle;Max_cycle;Signal;HPM_P1;HPM_P2
2021/07/25 00:00:16;;;;;;;14.40;6.28;;;28.40;52.40;;;;;;5053306;28;20035;-73
2021/07/25 00:02:42;;;;;;;12.55;5.88;;;28.50;52.50;;;;;;5054670;28;20086;-74
2021/07/25 00:05:09;;;;;;;13.32;5.60;;;28.50;52.80;;;;;;5054560;28;20474;-74
2021/07/25 00:07:35;;;;;;;12.52;6.38;;;28.50;52.30;;;;;;5054651;28;20049;-73
2021/07/25 00:10:02;;;;;;;14.57;6.35;;;28.50;52.80;;;;;;5052178;28;20017;-74
2021/07/25 00:12:28;;;;;;;10.93;6.45;;;28.50;52.70;;;;;;5054589;28;20382;-73
2021/07/25 00:14:54;;;;;;;13.02;6.57;;;28.50;52.60;;;;;;5054509;28;20474;-74
2021/07/25 00:17:20;;;;;;;16.02;7.03;;;28.50;52.50;;;;;;5053287;28;20028;-74
2021/07/25 00:19:46;;;;;;;13.77;6.72;;;28.50;51.20;;;;;;5054543;28;20025;-75
2021/07/25 00:22:13;;;;;;;13.88;7.05;;;28.40;52.40;;;;;;5037318;28;20041;-73
2021/07/25 00:24:42;;;;;;;12.50;6.53;;;28.40;52.40;;;;;;5034579;28;20018;-74
2021/07/25 00:27:09;;;;;;;11.07;6.97;;;28.30;52.30;;;;;;5032972;28;20037;-73
2021/07/25 00:29:34;;;;;;;15.15;6.45;;;28.30;52.40;;;;;;5045763;28;20036;-74
2021/07/25 00:32:01;;;;;;;13.45;7.43;;;28.30;52.20;;;;;;5054063;28;20045;-74
2021/07/25 00:34:31;;;;;;;12.27;6.60;;;28.20;52.50;;;;;;5053057;28;20163;-73
2021/07/25 00:36:58;;;;;;;15.98;7.38;;;28.10;52.30;;;;;;5054070;28;20093;-73
2021/07/25 00:39:24;;;;;;;9.40;7.00;;;28.00;52.20;;;;;;5053020;28;20013;-73
2021/07/25 00:41:50;;;;;;;14.15;6.85;;;28.00;52.20;;;;;;5053723;28;20028;-74
2021/07/25 00:44:16;;;;;;;14.20;7.00;;;28.00;52.20;;;;;;5054170;28;20378;-73
2021/07/25 00:46:45;;;;;;;14.95;7.03;;;28.00;52.40;;;;;;5053995;28;20075;-74
2021/07/25 00:49:11;;;;;;;12.60;6.90;;;28.00;52.40;;;;;;5054043;28;20442;-73
2021/07/25 00:51:37;;;;;;;10.75;6.70;;;28.00;52.60;;;;;;5053635;28;20051;-73
2021/07/25 00:54:03;;;;;;;14.52;6.88;;;28.00;52.20;;;;;;5053758;28;20029;-73
2021/07/25 00:56:29;;;;;;;14.65;6.85;;;28.00;52.30;;;;;;5053335;28;20031;-73
2021/07/25 00:58:54;;;;;;;13.40;7.45;;;28.00;52.20;;;;;;5053439;28;20021;-73
2021/07/25 01:01:23;;;;;;;11.50;6.78;;;28.00;52.80;;;;;;5053674;28;20473;-75
2021/07/25 01:04:16;;;;;;;14.55;7.25;;;28.00;51.90;;;;;;5053247;28;20013;-74
2021/07/25 01:06:53;;;;;;;11.77;7.10;;;28.00;50.70;;;;;;5053330;28;20037;-73
2021/07/25 01:09:40;;;;;;;12.98;6.75;;;27.90;50.80;;;;;;5052044;28;20047;-74
2021/07/25 01:12:11;;;;;;;8.82;7.03;;;27.90;50.90;;;;;;5051733;28;20119;-73
2021/07/25 01:14:38;;;;;;;14.98;7.28;;;27.80;52.20;;;;;;5053337;28;20029;-74
2021/07/25 01:17:22;;;;;;;14.35;6.88;;;27.70;52.50;;;;;;5053204;28;20029;-73
2021/07/25 01:19:49;;;;;;;13.25;7.10;;;27.70;52.70;;;;;;5052000;28;20445;-73
2021/07/25 01:22:15;;;;;;;10.70;7.18;;;27.60;52.80;;;;;;5053156;28;20028;-74
2021/07/25 01:24:40;;;;;;;11.95;7.00;;;27.60;53.00;;;;;;5053481;28;20407;-75
2021/07/25 01:27:08;;;;;;;11.40;6.70;;;27.60;52.90;;;;;;5053307;28;20029;-75
2021/07/25 01:29:35;;;;;;;10.45;6.32;;;27.70;53.80;;;;;;5053010;28;20029;-73
2021/07/25 01:32:01;;;;;;;12.93;6.60;;;27.70;52.80;;;;;;5053074;28;20386;-74
2021/07/25 01:34:29;;;;;;;11.57;6.50;;;27.60;52.50;;;;;;5052735;28;20412;-74
2021/07/25 01:36:57;;;;;;;17.13;6.75;;;27.60;52.70;;;;;;5051412;28;20082;-75
2021/07/25 01:39:26;;;;;;;10.23;6.60;;;27.50;52.80;;;;;;5053298;28;20478;-74
2021/07/25 01:41:52;;;;;;;16.02;6.90;;;27.60;52.90;;;;;;5053024;28;20028;-74
2021/07/25 01:44:17;;;;;;;15.48;6.40;;;27.60;53.20;;;;;;5051348;28;20032;-73
2021/07/25 01:46:43;;;;;;;12.73;6.28;;;27.50;53.10;;;;;;5053063;28;20394;-74
2021/07/25 01:49:09;;;;;;;14.75;6.30;;;27.60;53.20;;;;;;5052983;28;20481;-74
2021/07/25 01:51:34;;;;;;;10.85;6.65;;;27.60;53.90;;;;;;5052785;28;20517;-75
2021/07/25 01:54:00;;;;;;;11.40;6.10;;;27.50;53.10;;;;;;5052463;28;20025;-74
2021/07/25 01:56:26;;;;;;;15.05;6.40;;;27.50;53.00;;;;;;5052216;28;20082;-74
2021/07/25 01:58:51;;;;;;;11.13;6.20;;;27.50;53.00;;;;;;5052759;28;20433;-74
2021/07/25 02:01:17;;;;;;;11.57;6.82;;;27.50;53.00;;;;;;5051551;28;20470;-74
2021/07/25 02:03:43;;;;;;;13.65;7.22;;;27.50;53.10;;;;;;5052600;28;20071;-74
2021/07/25 02:06:08;;;;;;;15.25;7.45;;;27.50;53.00;;;;;;5068174;28;20033;-74
2021/07/25 02:08:34;;;;;;;11.07;6.53;;;27.50;53.10;;;;;;5051167;28;20159;-74
2021/07/25 02:11:00;;;;;;;13.25;6.97;;;27.40;53.00;;;;;;5052556;28;20052;-74
2021/07/25 02:13:25;;;;;;;14.10;7.07;;;27.40;53.00;;;;;;5052812;28;20029;-74
2021/07/25 02:15:52;;;;;;;19.10;7.47;;;27.30;53.00;;;;;;5052305;28;20142;-74
2021/07/25 02:18:18;;;;;;;17.58;7.28;;;27.30;52.90;;;;;;5052687;28;20029;-73
2021/07/25 02:20:44;;;;;;;12.68;7.20;;;27.20;52.80;;;;;;5052552;28;20025;-74
2021/07/25 02:23:10;;;;;;;14.05;8.27;;;27.10;53.00;;;;;;5052070;28;20025;-73
2021/07/25 02:25:38;;;;;;;12.90;7.25;;;27.00;52.80;;;;;;5050872;28;20040;-74
2021/07/25 02:28:04;;;;;;;16.38;7.43;;;27.00;53.10;;;;;;5052393;28;20115;-73
2021/07/25 02:30:30;;;;;;;11.90;6.88;;;27.00;52.80;;;;;;5052438;28;20025;-74
2021/07/25 02:32:56;;;;;;;11.77;7.82;;;26.90;53.00;;;;;;5054769;28;20576;-74
2021/07/25 02:35:21;;;;;;;12.40;7.55;;;26.90;52.60;;;;;;5055582;28;20428;-74
2021/07/25 02:37:47;;;;;;;15.88;7.78;;;26.90;52.90;;;;;;5056371;28;20359;-73
2021/07/25 02:40:13;;;;;;;14.57;8.20;;;26.90;53.30;;;;;;5054633;28;20021;-75
2021/07/25 02:42:38;;;;;;;12.75;7.00;;;26.90;52.90;;;;;;5056353;28;20106;-73
2021/07/25 02:45:05;;;;;;;12.90;7.25;;;26.80;52.90;;;;;;5055899;28;20024;-74
2021/07/25 02:47:31;;;;;;;13.23;7.85;;;26.80;52.50;;;;;;5054629;28;20035;-75
2021/07/25 02:49:57;;;;;;;11.82;7.15;;;26.80;52.40;;;;;;5055631;28;20067;-75
2021/07/25 02:52:23;;;;;;;15.23;6.70;;;26.90;52.80;;;;;;5055496;28;20060;-73
2021/07/25 02:54:48;;;;;;;12.27;6.55;;;26.90;52.70;;;;;;5054687;28;20029;-74
2021/07/25 02:57:14;;;;;;;13.07;6.38;;;26.90;52.90;;;;;;5055696;28;20025;-73
2021/07/25 02:59:40;;;;;;;12.20;6.70;;;26.90;52.70;;;;;;5055841;28;20021;-74
2021/07/25 03:02:05;;;;;;;9.85;6.07;;;26.90;52.70;;;;;;5055857;28;20092;-74
2021/07/25 03:04:31;;;;;;;10.82;6.40;;;26.90;52.90;;;;;;5054730;28;20071;-74
2021/07/25 03:06:57;;;;;;;10.25;6.32;;;26.90;52.60;;;;;;5055319;28;20028;-74
2021/07/25 03:09:22;;;;;;;10.93;6.45;;;26.90;52.70;;;;;;5055883;28;20136;-74
2021/07/25 03:11:48;;;;;;;12.98;6.80;;;26.90;52.70;;;;;;5054526;28;20075;-74
2021/07/25 03:14:14;;;;;;;16.95;6.75;;;26.80;52.90;;;;;;5055645;28;20044;-74
2021/07/25 03:16:39;;;;;;;9.60;6.40;;;26.80;53.00;;;;;;5053982;28;20032;-74
2021/07/25 03:19:05;;;;;;;12.63;6.43;;;26.80;53.10;;;;;;5055017;28;20068;-74
2021/07/25 03:21:31;;;;;;;11.68;6.15;;;26.70;53.40;;;;;;5055695;28;20017;-75
2021/07/25 03:23:57;;;;;;;11.05;6.10;;;26.70;54.00;;;;;;5055168;28;20470;-74
2021/07/25 03:26:22;;;;;;;10.90;5.30;;;26.70;53.40;;;;;;5054248;28;20490;-74
2021/07/25 03:28:48;;;;;;;9.50;5.65;;;26.70;53.80;;;;;;5035514;28;20123;-73
2021/07/25 03:31:13;;;;;;;11.27;5.78;;;26.70;53.80;;;;;;5035625;28;20040;-74
2021/07/25 03:33:39;;;;;;;11.18;5.75;;;26.70;53.90;;;;;;5035984;28;20120;-73
2021/07/25 03:36:05;;;;;;;11.95;5.88;;;26.70;53.80;;;;;;5055208;28;20029;-74
2021/07/25 03:38:31;;;;;;;9.95;5.85;;;26.70;54.10;;;;;;5054764;28;20024;-74
2021/07/25 03:41:02;;;;;;;12.80;6.10;;;26.70;55.10;;;;;;5055243;28;20028;-75
2021/07/25 03:43:28;;;;;;;10.45;5.55;;;26.60;55.10;;;;;;5054172;28;20033;-74
2021/07/25 03:45:54;;;;;;;13.20;6.03;;;26.70;55.20;;;;;;5055292;28;20025;-75
2021/07/25 03:48:20;;;;;;;15.13;5.97;;;26.70;55.10;;;;;;5055259;28;20021;-74
2021/07/25 03:50:46;;;;;;;8.55;5.45;;;26.70;55.30;;;;;;5054724;28;20057;-75
2021/07/25 03:53:12;;;;;;;10.88;5.47;;;26.70;55.20;;;;;;5054438;28;20512;-74
2021/07/25 03:55:37;;;;;;;11.10;5.72;;;26.70;55.10;;;;;;5055089;28;20057;-75
2021/07/25 03:58:04;;;;;;;8.45;5.38;;;26.70;55.20;;;;;;5055007;28;20032;-74
2021/07/25 04:00:31;;;;;;;9.77;5.53;;;26.60;55.40;;;;;;5054716;28;20470;-74
2021/07/25 04:02:57;;;;;;;7.70;5.20;;;26.60;55.00;;;;;;5054548;28;20029;-75
2021/07/25 04:05:24;;;;;;;8.48;5.28;;;26.60;55.50;;;;;;5054722;28;20029;-75
2021/07/25 04:07:49;;;;;;;11.30;5.53;;;26.70;55.40;;;;;;5054723;28;20049;-74
2021/07/25 04:10:17;;;;;;;9.98;5.40;;;26.70;55.30;;;;;;5054877;28;20102;-74
2021/07/25 04:12:43;;;;;;;9.38;5.00;;;26.70;55.00;;;;;;5054588;28;20029;-74
2021/07/25 04:15:09;;;;;;;13.30;5.63;;;26.70;55.10;;;;;;5054664;28;20497;-74
2021/07/25 04:17:35;;;;;;;10.63;6.05;;;26.80;54.70;;;;;;5054422;28;20101;-73
2021/07/25 04:20:02;;;;;;;9.60;5.47;;;26.80;54.90;;;;;;5054343;28;20442;-74
2021/07/25 04:22:32;;;;;;;10.02;5.53;;;26.80;54.10;;;;;;5054361;28;20052;-74
2021/07/25 04:24:58;;;;;;;7.53;5.72;;;26.80;55.10;;;;;;5054274;28;20064;-72
2021/07/25 04:27:24;;;;;;;15.20;5.35;;;26.80;54.90;;;;;;5054357;28;20094;-74
2021/07/25 04:29:50;;;;;;;9.98;5.40;;;26.90;54.80;;;;;;5053974;28;20116;-74
2021/07/25 04:32:16;;;;;;;8.80;5.68;;;26.90;54.70;;;;;;5054408;28;20025;-74
2021/07/25 04:34:42;;;;;;;8.65;5.93;;;26.90;54.70;;;;;;5054573;28;20029;-74
2021/07/25 04:37:21;;;;;;;10.45;5.60;;;26.90;54.70;;;;;;5054746;28;20029;-74
2021/07/25 04:39:47;;;;;;;11.50;5.57;;;26.90;54.60;;;;;;5054130;28;20025;-74
2021/07/25 04:42:16;;;;;;;13.82;5.97;;;26.90;54.70;;;;;;5053745;28;20461;-74
2021/07/25 04:44:48;;;;;;;8.80;5.50;;;27.00;55.30;;;;;;5052939;28;20029;-75
2021/07/25 04:47:19;;;;;;;10.95;6.38;;;27.00;55.20;;;;;;5054105;28;20052;-74
2021/07/25 04:49:59;;;;;;;11.05;5.82;;;26.90;55.40;;;;;;5052635;28;20053;-74
2021/07/25 04:52:26;;;;;;;9.48;5.82;;;26.90;55.70;;;;;;5033786;28;20034;-74
2021/07/25 04:54:57;;;;;;;10.40;6.07;;;26.80;55.70;;;;;;5045340;28;20033;-74
2021/07/25 04:57:28;;;;;;;12.82;5.97;;;26.90;55.80;;;;;;5053616;28;20366;-74
2021/07/25 04:59:58;;;;;;;12.60;6.28;;;27.00;55.70;;;;;;5053788;28;20071;-74
2021/07/25 05:02:25;;;;;;;10.00;5.88;;;27.00;55.70;;;;;;5053459;28;20029;-74
2021/07/25 05:04:51;;;;;;;12.18;6.47;;;26.80;55.40;;;;;;5053642;28;20021;-74
2021/07/25 05:07:17;;;;;;;11.10;6.40;;;26.80;55.90;;;;;;5053384;28;20144;-72
2021/07/25 05:09:43;;;;;;;11.40;5.72;;;26.90;55.90;;;;;;5052353;28;20052;-74
2021/07/25 05:12:10;;;;;;;13.07;6.32;;;27.00;55.70;;;;;;5053139;28;20394;-74
2021/07/25 05:14:51;;;;;;;12.10;5.88;;;27.20;55.40;;;;;;5053421;28;20087;-74
2021/07/25 05:17:37;;;;;;;16.20;6.57;;;27.30;54.40;;;;;;5053212;28;20025;-74
2021/07/25 05:20:08;;;;;;;13.50;6.55;;;27.40;55.30;;;;;;5024541;28;20398;-74
2021/07/25 05:22:39;;;;;;;10.68;6.45;;;27.50;54.90;;;;;;5053209;28;20032;-74
2021/07/25 05:25:06;;;;;;;14.70;6.78;;;27.60;54.30;;;;;;5053447;28;20070;-75
2021/07/25 05:27:40;;;;;;;19.38;7.40;;;27.60;55.10;;;;;;5053299;28;20393;-75
2021/07/25 05:30:07;;;;;;;12.20;6.93;;;27.70;55.30;;;;;;5053390;28;20028;-74
2021/07/25 05:32:32;;;;;;;14.55;6.90;;;27.70;54.90;;;;;;5052770;28;20428;-74
2021/07/25 05:34:58;;;;;;;14.77;6.75;;;27.70;55.20;;;;;;5053247;28;20021;-76
2021/07/25 05:37:24;;;;;;;10.68;7.15;;;27.80;55.30;;;;;;5053100;28;20036;-75
2021/07/25 05:39:49;;;;;;;13.88;6.85;;;28.00;55.10;;;;;;5053203;28;20028;-74
2021/07/25 05:42:15;;;;;;;11.77;6.68;;;28.00;55.10;;;;;;5052685;28;20024;-73
2021/07/25 05:44:41;;;;;;;10.13;6.18;;;28.00;54.70;;;;;;5053086;28;20387;-74
2021/07/25 05:47:06;;;;;;;13.68;6.38;;;28.00;54.40;;;;;;5052598;28;20028;-74
2021/07/25 05:49:32;;;;;;;9.88;6.93;;;28.00;54.50;;;;;;5052811;28;20515;-74
2021/07/25 05:51:57;;;;;;;10.15;5.50;;;27.80;54.30;;;;;;5052895;28;20039;-75
2021/07/25 05:54:23;;;;;;;15.13;6.43;;;27.80;54.70;;;;;;5052793;28;20155;-74
2021/07/25 05:56:52;;;;;;;10.35;6.18;;;27.70;54.60;;;;;;5068402;28;20037;-75
2021/07/25 05:59:17;;;;;;;11.00;6.50;;;27.60;54.80;;;;;;5052500;28;20029;-75
2021/07/25 06:01:44;;;;;;;15.90;6.18;;;27.40;54.60;;;;;;5052633;28;20032;-75
2021/07/25 06:04:10;;;;;;;14.55;6.50;;;27.40;54.80;;;;;;5052612;28;20033;-74
2021/07/25 06:06:36;;;;;;;12.23;6.43;;;27.30;54.60;;;;;;5051752;28;20421;-74
2021/07/25 06:09:03;;;;;;;11.25;6.20;;;27.40;54.40;;;;;;5056975;28;20048;-74
2021/07/25 06:11:30;;;;;;;11.95;5.75;;;27.50;54.30;;;;;;5057189;28;20021;-73
2021/07/25 06:13:56;;;;;;;8.75;5.13;;;27.50;53.90;;;;;;5056229;28;20075;-74
2021/07/25 06:16:22;;;;;;;11.07;6.07;;;27.60;54.20;;;;;;5056676;28;20021;-74
2021/07/25 06:18:48;;;;;;;11.40;5.78;;;27.80;53.90;;;;;;5056639;28;20029;-74
2021/07/25 06:21:18;;;;;;;15.77;6.47;;;27.90;53.80;;;;;;5056635;28;20124;-74
2021/07/25 06:23:46;;;;;;;14.30;6.10;;;27.90;53.00;;;;;;5055408;28;20433;-76
2021/07/25 06:26:13;;;;;;;10.05;5.32;;;28.00;54.10;;;;;;5056816;28;20021;-74
2021/07/25 06:28:38;;;;;;;22.73;6.05;;;28.10;53.10;;;;;;5056763;28;20098;-74
2021/07/25 06:31:04;;;;;;;14.35;5.47;;;28.30;52.80;;;;;;5057044;28;20466;-72
2021/07/25 06:33:30;;;;;;;10.18;5.55;;;28.50;52.40;;;;;;5056305;28;20092;-74
2021/07/25 06:35:56;;;;;;;10.70;5.55;;;28.80;51.80;;;;;;5056276;28;20482;-73
2021/07/25 06:38:23;;;;;;;17.73;5.63;;;28.90;51.80;;;;;;5056501;28;20489;-74
2021/07/25 06:40:54;;;;;;;13.88;4.80;;;29.10;51.40;;;;;;5055984;28;20428;-74
2021/07/25 06:43:20;;;;;;;11.95;4.55;;;29.30;51.10;;;;;;5056328;28;20104;-73
2021/07/25 06:45:46;;;;;;;8.68;4.35;;;29.60;51.00;;;;;;5055924;28;20029;-76
2021/07/25 06:48:26;;;;;;;15.75;4.65;;;29.80;50.60;;;;;;5056304;28;20021;-75
2021/07/25 06:50:59;;;;;;;10.63;4.65;;;29.90;50.40;;;;;;5056357;28;20525;-74
2021/07/25 06:53:28;;;;;;;12.07;4.40;;;30.00;49.00;;;;;;5056262;28;20040;-73
2021/07/25 06:55:56;;;;;;;10.80;4.78;;;30.00;50.60;;;;;;5056023;28;20021;-75
2021/07/25 06:58:22;;;;;;;11.75;4.85;;;29.90;50.70;;;;;;5056996;28;20051;-77
2021/07/25 07:00:48;;;;;;;11.88;4.82;;;29.90;50.40;;;;;;5055896;28;20021;-75
2021/07/25 07:03:18;;;;;;;10.60;4.35;;;30.00;50.20;;;;;;5056107;28;20030;-70
2021/07/25 07:05:44;;;;;;;9.38;4.75;;;29.90;50.40;;;;;;5055635;28;20029;-69
2021/07/25 07:08:09;;;;;;;8.98;4.75;;;29.90;50.40;;;;;;5055818;28;20159;-69
2021/07/25 07:10:41;;;;;;;9.23;4.82;;;29.80;50.60;;;;;;5054677;28;20036;-69
2021/07/25 07:13:09;;;;;;;10.48;5.20;;;29.70;50.30;;;;;;5055669;28;20048;-69
2021/07/25 07:15:37;;;;;;;11.60;5.60;;;29.70;50.90;;;;;;5055632;28;20041;-70
2021/07/25 07:18:03;;;;;;;9.63;5.28;;;29.70;50.30;;;;;;5055436;28;20051;-70
2021/07/25 07:20:29;;;;;;;7.68;4.50;;;29.60;50.40;;;;;;5056077;28;20025;-70
2021/07/25 07:23:01;;;;;;;11.35;4.97;;;29.60;50.50;;;;;;5054189;28;20029;-69
2021/07/25 07:25:39;;;;;;;8.20;4.53;;;29.70;50.40;;;;;;5055953;28;20025;-69
2021/07/25 07:28:05;;;;;;;8.73;4.55;;;29.70;48.20;;;;;;5055671;28;20024;-70
2021/07/25 07:30:31;;;;;;;15.95;4.90;;;29.70;49.60;;;;;;5055342;28;20455;-71
2021/07/25 07:33:08;;;;;;;9.77;4.90;;;29.80;49.70;;;;;;5055557;28;20041;-79
2021/07/25 07:35:34;;;;;;;11.32;4.68;;;29.80;48.20;;;;;;5054085;28;20059;-69
2021/07/25 07:38:00;;;;;;;8.55;4.63;;;29.90;49.50;;;;;;5054259;28;20025;-69
2021/07/25 07:40:26;;;;;;;10.68;5.00;;;29.90;49.70;;;;;;5053402;28;20017;-71
2021/07/25 07:42:52;;;;;;;10.90;4.55;;;29.90;49.40;;;;;;5053064;28;20100;-69
2021/07/25 07:45:18;;;;;;;11.73;5.10;;;30.00;49.40;;;;;;5053672;28;20398;-70
2021/07/25 07:47:49;;;;;;;8.93;5.30;;;30.20;49.40;;;;;;5054326;28;20490;-70
2021/07/25 07:50:18;;;;;;;8.13;4.70;;;30.50;47.50;;;;;;5054773;28;20025;-71
2021/07/25 07:52:44;;;;;;;9.23;4.75;;;30.70;46.70;;;;;;5052278;28;20029;-71
2021/07/25 07:55:10;;;;;;;10.80;4.88;;;30.80;48.80;;;;;;5054332;28;20033;-71
2021/07/25 07:57:36;;;;;;;10.13;4.57;;;30.80;48.30;;;;;;5052032;28;20482;-69
2021/07/25 08:00:07;;;;;;;14.32;4.95;;;30.90;48.10;;;;;;5054801;28;20051;-72
2021/07/25 08:02:34;;;;;;;11.38;6.00;;;31.00;46.10;;;;;;5054379;28;20426;-68
2021/07/25 08:05:01;;;;;;;15.65;5.85;;;31.10;48.70;;;;;;5054801;28;20031;-71
2021/07/25 08:07:27;;;;;;;11.07;4.72;;;31.20;48.20;;;;;;5054490;28;20052;-73
2021/07/25 08:09:53;;;;;;;8.40;4.57;;;31.30;47.70;;;;;;5055002;28;20025;-73
2021/07/25 08:12:19;;;;;;;10.98;4.78;;;31.30;47.50;;;;;;5056320;28;20100;-69
2021/07/25 08:14:45;;;;;;;17.70;5.55;;;31.30;47.70;;;;;;5057514;28;20044;-73
2021/07/25 08:17:10;;;;;;;18.27;6.22;;;31.40;47.40;;;;;;5054412;28;20021;-71
2021/07/25 08:19:36;;;;;;;16.17;5.00;;;31.40;47.50;;;;;;5054612;28;20473;-71
2021/07/25 08:22:02;;;;;;;12.73;5.95;;;31.50;47.10;;;;;;5054177;28;20108;-72
2021/07/25 08:24:28;;;;;;;9.88;5.35;;;31.50;46.90;;;;;;5053437;28;20492;-71
2021/07/25 08:26:54;;;;;;;16.73;6.05;;;31.50;47.30;;;;;;5053959;28;20029;-71
2021/07/25 08:29:20;;;;;;;13.68;5.57;;;31.50;47.40;;;;;;5053664;28;20056;-71
2021/07/25 08:31:45;;;;;;;11.50;4.40;;;31.50;46.70;;;;;;5053613;28;20023;-69
2021/07/25 08:34:11;;;;;;;9.90;4.70;;;31.50;46.40;;;;;;5054466;28;20037;-70
2021/07/25 08:36:37;;;;;;;12.75;5.43;;;31.50;45.20;;;;;;5053683;28;20022;-73
2021/07/25 08:39:04;;;;;;;16.52;5.00;;;31.50;46.10;;;;;;5053854;28;20071;-78
2021/07/25 08:41:48;;;;;;;14.02;4.65;;;31.50;45.30;;;;;;5054334;28;20040;-75
2021/07/25 08:44:37;;;;;;;14.10;5.72;;;31.50;43.40;;;;;;5054219;28;20040;-71
2021/07/25 08:47:22;;;;;;;10.60;4.90;;;31.50;45.00;;;;;;5053328;28;20023;-74
2021/07/25 08:49:58;;;;;;;14.80;5.70;;;31.50;43.70;;;;;;5049658;28;20071;-73
2021/07/25 08:52:28;;;;;;;9.13;4.80;;;31.50;44.20;;;;;;5054022;28;20117;-74
2021/07/25 08:54:55;;;;;;;11.48;4.95;;;31.50;46.30;;;;;;5052810;28;20092;-73
2021/07/25 08:57:28;;;;;;;10.95;5.35;;;31.50;46.50;;;;;;5053928;28;20021;-73
2021/07/25 08:59:55;;;;;;;10.07;5.23;;;31.50;45.20;;;;;;5052669;28;20021;-72
2021/07/25 09:02:24;;;;;;;12.77;5.70;;;31.50;46.70;;;;;;5052107;28;20290;-69
2021/07/25 09:04:51;;;;;;;12.30;4.72;;;31.60;45.80;;;;;;5053619;28;20043;-70
2021/07/25 09:07:19;;;;;;;57.50;10.20;;;31.60;45.30;;;;;;5053824;28;20048;-71
2021/07/25 09:09:47;;;;;;;24.75;6.70;;;31.60;46.50;;;;;;5053370;28;20027;-73
2021/07/25 09:12:16;;;;;;;16.90;5.85;;;31.60;46.90;;;;;;5053543;28;20120;-71
2021/07/25 09:14:50;;;;;;;21.48;6.43;;;31.60;46.00;;;;;;5053656;28;20028;-71
2021/07/25 09:17:17;;;;;;;17.15;4.75;;;31.50;43.30;;;;;;5054190;28;20029;-74
2021/07/25 09:20:10;;;;;;;12.45;3.70;;;31.50;42.40;;;;;;5055252;28;20048;-73
2021/07/25 09:22:40;;;;;;;;;;;31.60;40.60;;;;;;5060728;28;20031;-75
2021/07/25 09:25:06;;;;;;;16.95;5.40;;;31.60;41.90;;;;;;5072055;28;19904;-73
2021/07/25 09:27:32;;;;;;;11.45;4.30;;;31.60;43.90;;;;;;5058959;28;20068;-72
2021/07/25 09:30:14;;;;;;;11.45;4.13;;;31.70;41.30;;;;;;5053334;28;20378;-73
2021/07/25 09:32:40;;;;;;;13.82;5.05;;;31.70;39.60;;;;;;5053716;28;20033;-72
2021/07/25 09:35:22;;;;;;;11.27;4.05;;;31.80;41.00;;;;;;5052945;28;20117;-73
2021/07/25 09:37:49;;;;;;;14.50;4.15;;;31.80;39.80;;;;;;5049149;28;20375;-74
2021/07/25 09:40:15;;;;;;;10.15;4.55;;;31.80;39.30;;;;;;5053296;28;20048;-71
2021/07/25 09:42:42;;;;;;;16.33;4.28;;;31.80;39.60;;;;;;5051575;28;20025;-73
2021/07/25 09:45:08;;;;;;;8.57;4.20;;;31.80;39.70;;;;;;5052300;28;20108;-70
2021/07/25 09:47:37;;;;;;;14.13;4.70;;;31.80;41.00;;;;;;5052209;28;20025;-71
2021/07/25 09:50:05;;;;;;;17.70;4.47;;;31.80;40.60;;;;;;5053165;28;20013;-72
2021/07/25 09:52:39;;;;;;;6.22;3.90;;;31.80;41.70;;;;;;5053017;28;20094;-71
2021/07/25 09:55:07;;;;;;;12.23;4.07;;;31.80;41.80;;;;;;5052745;28;20512;-71
2021/07/25 09:57:35;;;;;;;13.10;4.38;;;31.80;42.30;;;;;;5052467;28;20017;-69
2021/07/25 10:00:09;;;;;;;11.52;4.30;;;31.80;42.60;;;;;;5052579;28;20033;-71
2021/07/25 10:02:38;;;;;;;10.82;4.00;;;31.70;42.40;;;;;;5053146;28;20017;-67
2021/07/25 10:05:10;;;;;;;8.38;4.22;;;31.70;43.30;;;;;;5052362;28;20029;-69
2021/07/25 10:07:37;;;;;;;10.55;3.92;;;31.70;43.00;;;;;;5051240;28;20067;-70
2021/07/25 10:10:05;;;;;;;13.18;4.50;;;31.70;44.50;;;;;;5052720;28;20081;-70
2021/07/25 10:12:35;;;;;;;13.25;4.38;;;31.60;45.10;;;;;;5052723;28;20033;-70
2021/07/25 10:15:04;;;;;;;14.10;4.85;;;31.50;46.70;;;;;;5047430;28;20489;-69
2021/07/25 10:17:34;;;;;;;9.73;4.32;;;31.50;46.50;;;;;;5032529;28;20100;-71
2021/07/25 10:20:03;;;;;;;11.80;4.00;;;31.50;47.40;;;;;;5031664;28;20025;-70
2021/07/25 10:22:30;;;;;;;10.90;4.32;;;31.40;47.20;;;;;;5037994;28;20067;-69
2021/07/25 10:25:05;;;;;;;12.30;4.30;;;31.40;47.60;;;;;;5051743;28;20478;-72
2021/07/25 10:27:33;;;;;;;8.05;4.43;;;31.40;47.90;;;;;;5051106;28;20018;-71
2021/07/25 10:30:09;;;;;;;10.85;4.28;;;31.40;46.40;;;;;;5052500;28;20033;-71
2021/07/25 10:32:38;;;;;;;15.80;4.47;;;31.40;47.60;;;;;;5061034;28;20120;-70
2021/07/25 10:35:08;;;;;;;12.52;4.22;;;31.40;47.60;;;;;;5052160;28;20471;-70
2021/07/25 10:37:39;;;;;;;14.70;4.10;;;31.40;46.00;;;;;;5052445;28;20018;-70
2021/07/25 10:40:10;;;;;;;10.52;3.90;;;31.40;46.80;;;;;;5067733;28;20040;-71
2021/07/25 10:42:41;;;;;;;9.77;4.45;;;31.50;46.60;;;;;;5052162;28;20021;-72
2021/07/25 10:45:10;;;;;;;12.00;4.18;;;31.50;46.80;;;;;;5050441;28;20115;-69
2021/07/25 10:47:36;;;;;;;11.88;4.05;;;31.50;46.00;;;;;;5052014;28;20029;-70
2021/07/25 10:50:08;;;;;;;11.27;4.68;;;31.50;45.60;;;;;;5052364;28;20079;-69
2021/07/25 10:53:02;;;;;;;10.63;4.07;;;31.50;43.80;;;;;;5051978;28;20082;-71
2021/07/25 10:55:42;;;;;;;8.15;4.50;;;31.50;44.40;;;;;;5035594;28;20021;-72
2021/07/25 10:58:15;;;;;;;8.77;3.72;;;31.50;44.60;;;;;;5034793;28;20038;-73
2021/07/25 11:00:51;;;;;;;10.65;4.10;;;31.50;46.20;;;;;;5035080;28;20465;-71
2021/07/25 11:03:25;;;;;;;9.15;4.50;;;31.60;44.20;;;;;;5036079;28;20029;-72
2021/07/25 11:06:18;;;;;;;9.93;3.90;;;31.70;45.30;;;;;;5035693;28;20062;-74
2021/07/25 11:08:46;;;;;;;14.95;4.38;;;31.80;45.40;;;;;;5039093;28;20102;-76
2021/07/25 11:11:36;;;;;;;11.15;4.57;;;31.90;44.70;;;;;;5055564;28;20017;-71
2021/07/25 11:14:07;;;;;;;9.70;4.32;;;31.90;43.50;;;;;;5055293;28;20044;-71
2021/07/25 11:16:32;;;;;;;9.98;4.30;;;32.00;43.40;;;;;;5055224;28;20455;-71
2021/07/25 11:19:04;;;;;;;7.32;4.28;;;32.00;42.40;;;;;;5055617;28;20029;-73
2021/07/25 11:21:41;;;;;;;10.75;4.30;;;32.00;43.50;;;;;;5055093;28;20805;-71
2021/07/25 11:24:19;;;;;;;8.65;3.90;;;32.00;44.10;;;;;;5055314;28;20517;-71
2021/07/25 11:26:46;;;;;;;9.88;4.20;;;32.10;44.10;;;;;;5054896;28;20033;-71
2021/07/25 11:29:36;;;;;;;8.00;3.95;;;32.10;41.90;;;;;;5054978;28;20013;-72
2021/07/25 11:32:03;;;;;;;8.35;4.18;;;32.20;42.10;;;;;;5049726;28;20494;-75
2021/07/25 11:34:36;;;;;;;10.95;4.20;;;32.20;41.40;;;;;;5054841;28;20127;-71
2021/07/25 11:37:04;;;;;;;9.30;4.07;;;32.20;41.50;;;;;;5054841;28;20029;-77
2021/07/25 11:39:31;;;;;;;14.43;3.65;;;32.20;41.00;;;;;;5055294;28;20027;-70
2021/07/25 11:41:58;;;;;;;11.52;3.72;;;32.20;41.00;;;;;;5055485;28;20017;-72
2021/07/25 11:44:25;;;;;;;10.40;3.90;;;32.30;40.70;;;;;;5055160;28;20051;-72
2021/07/25 11:46:52;;;;;;;6.20;3.40;;;32.40;40.70;;;;;;5054971;28;20082;-74
2021/07/25 11:49:23;;;;;;;6.07;3.05;;;32.40;39.30;;;;;;5057344;28;20338;-70
2021/07/25 11:51:58;;;;;;;9.73;3.72;;;32.40;39.40;;;;;;5054945;28;20023;-71
2021/07/25 11:54:29;;;;;;;8.57;3.60;;;32.40;39.90;;;;;;5055030;28;20094;-77
2021/07/25 11:56:55;;;;;;;15.85;3.72;;;32.40;37.90;;;;;;5053725;28;20029;-69
2021/07/25 11:59:21;;;;;;;10.40;4.00;;;32.40;38.20;;;;;;5054576;28;20037;-71
2021/07/25 12:01:47;;;;;;;6.53;3.22;;;32.30;39.50;;;;;;5055010;28;20113;-75
2021/07/25 12:04:21;;;;;;;6.07;3.25;;;32.20;39.40;;;;;;5051070;28;20033;-73
2021/07/25 12:06:57;;;;;;;7.78;3.60;;;32.10;39.10;;;;;;5053864;28;20049;-75
2021/07/25 12:09:24;;;;;;;8.32;2.85;;;32.00;38.50;;;;;;5053994;28;20390;-71
2021/07/25 12:12:02;;;;;;;5.22;3.00;;;31.90;38.30;;;;;;5070585;28;20033;-75
2021/07/25 12:14:29;;;;;;;6.40;3.70;;;31.90;38.30;;;;;;5054356;28;20033;-72
2021/07/25 12:16:56;;;;;;;6.20;3.05;;;31.90;37.20;;;;;;5054017;28;20029;-76
2021/07/25 12:19:22;;;;;;;8.10;3.65;;;31.90;37.20;;;;;;5053963;28;20025;-79
2021/07/25 12:21:49;;;;;;;8.52;3.30;;;31.90;37.10;;;;;;5070401;28;20037;-76
2021/07/25 12:24:29;;;;;;;6.88;3.13;;;31.80;36.70;;;;;;5054509;28;20103;-76
2021/07/25 12:26:56;;;;;;;6.68;3.15;;;31.80;36.00;;;;;;5054075;28;20021;-76
2021/07/25 12:29:44;;;;;;;5.40;3.20;;;31.90;36.80;;;;;;5054488;28;20029;-69
2021/07/25 12:32:30;;;;;;;8.25;3.60;;;31.90;36.50;;;;;;5053769;28;20051;-74
2021/07/25 12:35:12;;;;;;;13.52;3.50;;;31.90;36.40;;;;;;5053190;28;20029;-88
2021/07/25 12:37:43;;;;;;;9.85;3.20;;;32.00;36.50;;;;;;5054079;28;20099;-72
2021/07/25 12:40:11;;;;;;;13.65;3.70;;;32.10;36.00;;;;;;5054051;28;20028;-75
2021/07/25 12:42:44;;;;;;;10.43;3.85;;;32.20;36.00;;;;;;5054357;28;20100;-69
2021/07/25 12:45:30;;;;;;;10.40;3.47;;;32.20;35.40;;;;;;5053988;28;20113;-73
2021/07/25 12:48:21;;;;;;;9.77;3.88;;;32.30;35.10;;;;;;5053667;28;20347;-73